sensor_id;sensor_type;location;lat;lon;timestamp;P1;durP1;ratioP1;P2;durP2;ratioP2
52962;SDS011;38827;53.024;6.596;2023-12-07T00:00:42;14.98;;;11.63;;
52962;SDS011;38827;53.024;6.596;2023-12-07T00:03:17;14.70;;;11.10;;
52962;SDS011;38827;53.024;6.596;2023-12-07T00:06:01;16.75;;;11.13;;
52962;SDS011;38827;53.024;6.596;2023-12-07T00:08:33;18.60;;;11.45;;
52962;SDS011;38827;53.024;6.596;2023-12-07T00:11:02;17.42;;;10.82;;
52962;SDS011;38827;53.024;6.596;2023-12-07T00:13:33;15.88;;;10.93;;
52962;SDS011;38827;53.024;6.596;2023-12-07T00:15:59;14.32;;;10.45;;
52962;SDS011;38827;53.024;6.596;2023-12-07T00:18:24;17.15;;;10.88;;
52962;SDS011;38827;53.024;6.596;2023-12-07T00:20:53;12.30;;;9.98;;
52962;SDS011;38827;53.024;6.596;2023-12-07T00:23:18;13.68;;;9.95;;
52962;SDS011;38827;53.024;6.596;2023-12-07T00:25:49;17.25;;;10.52;;
52962;SDS011;38827;53.024;6.596;2023-12-07T00:31:09;14.60;;;9.60;;
52962;SDS011;38827;53.024;6.596;2023-12-07T00:33:44;12.63;;;9.80;;
52962;SDS011;38827;53.024;6.596;2023-12-07T00:36:10;12.60;;;9.38;;
52962;SDS011;38827;53.024;6.596;2023-12-07T00:38:37;13.43;;;10.35;;
52962;SDS011;38827;53.024;6.596;2023-12-07T00:41:03;15.07;;;10.00;;
52962;SDS011;38827;53.024;6.596;2023-12-07T00:43:35;13.68;;;9.65;;
52962;SDS011;38827;53.024;6.596;2023-12-07T00:46:00;13.38;;;10.27;;
52962;SDS011;38827;53.024;6.596;2023-12-07T00:48:27;13.88;;;10.23;;
52962;SDS011;38827;53.024;6.596;2023-12-07T00:50:52;14.40;;;9.88;;
52962;SDS011;38827;53.024;6.596;2023-12-07T00:53:18;15.63;;;9.75;;
52962;SDS011;38827;53.024;6.596;2023-12-07T00:55:44;15.95;;;10.40;;
52962;SDS011;38827;53.024;6.596;2023-12-07T00:58:10;14.57;;;10.35;;
52962;SDS011;38827;53.024;6.596;2023-12-07T01:00:35;13.77;;;9.68;;
52962;SDS011;38827;53.024;6.596;2023-12-07T01:03:02;15.00;;;10.40;;
52962;SDS011;38827;53.024;6.596;2023-12-07T01:05:28;16.17;;;9.93;;
52962;SDS011;38827;53.024;6.596;2023-12-07T01:07:53;12.90;;;10.30;;
52962;SDS011;38827;53.024;6.596;2023-12-07T01:10:21;12.65;;;9.73;;
52962;SDS011;38827;53.024;6.596;2023-12-07T01:12:55;14.23;;;9.82;;
52962;SDS011;38827;53.024;6.596;2023-12-07T01:15:20;13.65;;;8.73;;
52962;SDS011;38827;53.024;6.596;2023-12-07T01:20:34;14.63;;;9.68;;
52962;SDS011;38827;53.024;6.596;2023-12-07T01:23:00;12.82;;;9.07;;
52962;SDS011;38827;53.024;6.596;2023-12-07T01:25:41;16.48;;;9.48;;
52962;SDS011;38827;53.024;6.596;2023-12-07T01:28:22;11.65;;;8.95;;
52962;SDS011;38827;53.024;6.596;2023-12-07T01:30:47;12.05;;;8.65;;
52962;SDS011;38827;53.024;6.596;2023-12-07T01:33:22;13.38;;;8.75;;
52962;SDS011;38827;53.024;6.596;2023-12-07T01:35:48;14.45;;;8.57;;
52962;SDS011;38827;53.024;6.596;2023-12-07T01:38:29;12.98;;;8.90;;
52962;SDS011;38827;53.024;6.596;2023-12-07T01:40:57;13.95;;;8.55;;
52962;SDS011;38827;53.024;6.596;2023-12-07T01:43:44;13.10;;;8.55;;
52962;SDS011;38827;53.024;6.596;2023-12-07T01:46:25;17.63;;;9.07;;
52962;SDS011;38827;53.024;6.596;2023-12-07T01:48:51;13.80;;;8.75;;
52962;SDS011;38827;53.024;6.596;2023-12-07T01:51:17;13.65;;;8.88;;
52962;SDS011;38827;53.024;6.596;2023-12-07T01:53:57;12.95;;;9.48;;
52962;SDS011;38827;53.024;6.596;2023-12-07T01:56:26;16.27;;;10.30;;
52962;SDS011;38827;53.024;6.596;2023-12-07T01:58:52;12.48;;;9.93;;
52962;SDS011;38827;53.024;6.596;2023-12-07T02:01:30;12.50;;;9.38;;
52962;SDS011;38827;53.024;6.596;2023-12-07T02:03:56;14.52;;;9.02;;
52962;SDS011;38827;53.024;6.596;2023-12-07T02:08:58;15.30;;;10.77;;
52962;SDS011;38827;53.024;6.596;2023-12-07T02:11:24;17.02;;;9.95;;
52962;SDS011;38827;53.024;6.596;2023-12-07T02:13:49;13.23;;;10.07;;
52962;SDS011;38827;53.024;6.596;2023-12-07T02:22:25;15.63;;;11.02;;
52962;SDS011;38827;53.024;6.596;2023-12-07T02:25:14;13.70;;;9.75;;
52962;SDS011;38827;53.024;6.596;2023-12-07T02:27:57;16.73;;;11.15;;
52962;SDS011;38827;53.024;6.596;2023-12-07T02:30:28;15.60;;;10.77;;
52962;SDS011;38827;53.024;6.596;2023-12-07T02:32:54;19.00;;;11.05;;
52962;SDS011;38827;53.024;6.596;2023-12-07T02:35:38;16.25;;;11.73;;
52962;SDS011;38827;53.024;6.596;2023-12-07T02:41:59;16.60;;;11.13;;
52962;SDS011;38827;53.024;6.596;2023-12-07T02:47:01;20.27;;;12.10;;
52962;SDS011;38827;53.024;6.596;2023-12-07T02:49:27;17.90;;;12.40;;
52962;SDS011;38827;53.024;6.596;2023-12-07T02:51:52;18.10;;;11.90;;
52962;SDS011;38827;53.024;6.596;2023-12-07T02:54:18;18.48;;;12.00;;
52962;SDS011;38827;53.024;6.596;2023-12-07T02:56:56;15.00;;;9.73;;
52962;SDS011;38827;53.024;6.596;2023-12-07T02:59:21;17.30;;;12.10;;
52962;SDS011;38827;53.024;6.596;2023-12-07T03:01:56;17.77;;;12.43;;
52962;SDS011;38827;53.024;6.596;2023-12-07T03:04:22;17.92;;;12.30;;
52962;SDS011;38827;53.024;6.596;2023-12-07T03:07:08;18.80;;;12.80;;
52962;SDS011;38827;53.024;6.596;2023-12-07T03:09:39;17.60;;;12.85;;
52962;SDS011;38827;53.024;6.596;2023-12-07T03:12:04;18.90;;;12.48;;
52962;SDS011;38827;53.024;6.596;2023-12-07T03:14:31;19.20;;;12.90;;
52962;SDS011;38827;53.024;6.596;2023-12-07T03:17:12;19.52;;;11.93;;
52962;SDS011;38827;53.024;6.596;2023-12-07T03:22:11;19.05;;;12.25;;
52962;SDS011;38827;53.024;6.596;2023-12-07T03:24:50;17.73;;;11.95;;
52962;SDS011;38827;53.024;6.596;2023-12-07T03:27:16;19.10;;;11.80;;
52962;SDS011;38827;53.024;6.596;2023-12-07T03:29:52;18.70;;;12.38;;
52962;SDS011;38827;53.024;6.596;2023-12-07T03:32:17;17.88;;;11.52;;
52962;SDS011;38827;53.024;6.596;2023-12-07T03:34:43;15.98;;;11.35;;
52962;SDS011;38827;53.024;6.596;2023-12-07T03:37:09;15.43;;;11.15;;
52962;SDS011;38827;53.024;6.596;2023-12-07T03:39:34;19.65;;;11.90;;
52962;SDS011;38827;53.024;6.596;2023-12-07T03:42:00;16.90;;;11.30;;
52962;SDS011;38827;53.024;6.596;2023-12-07T03:47:29;18.83;;;11.30;;
52962;SDS011;38827;53.024;6.596;2023-12-07T03:50:21;15.95;;;11.52;;
52962;SDS011;38827;53.024;6.596;2023-12-07T03:52:59;17.60;;;11.50;;
52962;SDS011;38827;53.024;6.596;2023-12-07T03:55:33;14.75;;;11.20;;
52962;SDS011;38827;53.024;6.596;2023-12-07T03:57:59;18.25;;;11.20;;
52962;SDS011;38827;53.024;6.596;2023-12-07T04:00:28;19.50;;;12.18;;
52962;SDS011;38827;53.024;6.596;2023-12-07T04:03:09;18.80;;;12.35;;
52962;SDS011;38827;53.024;6.596;2023-12-07T04:05:47;17.10;;;12.07;;
52962;SDS011;38827;53.024;6.596;2023-12-07T04:08:24;17.08;;;11.55;;
52962;SDS011;38827;53.024;6.596;2023-12-07T04:10:56;18.08;;;12.30;;
52962;SDS011;38827;53.024;6.596;2023-12-07T04:13:21;16.42;;;11.95;;
52962;SDS011;38827;53.024;6.596;2023-12-07T04:15:47;18.58;;;12.38;;
52962;SDS011;38827;53.024;6.596;2023-12-07T04:18:13;18.23;;;12.20;;
52962;SDS011;38827;53.024;6.596;2023-12-07T04:20:51;18.52;;;12.38;;
52962;SDS011;38827;53.024;6.596;2023-12-07T04:23:26;16.50;;;11.52;;
52962;SDS011;38827;53.024;6.596;2023-12-07T04:25:52;16.70;;;11.07;;
52962;SDS011;38827;53.024;6.596;2023-12-07T04:28:17;17.00;;;12.13;;
52962;SDS011;38827;53.024;6.596;2023-12-07T04:30:46;17.95;;;12.57;;
52962;SDS011;38827;53.024;6.596;2023-12-07T04:33:21;17.33;;;12.65;;
52962;SDS011;38827;53.024;6.596;2023-12-07T04:35:53;19.80;;;12.70;;
52962;SDS011;38827;53.024;6.596;2023-12-07T04:38:18;22.42;;;13.40;;
52962;SDS011;38827;53.024;6.596;2023-12-07T04:40:50;21.45;;;13.38;;
52962;SDS011;38827;53.024;6.596;2023-12-07T04:43:16;23.10;;;14.55;;
52962;SDS011;38827;53.024;6.596;2023-12-07T04:45:48;20.75;;;14.20;;
52962;SDS011;38827;53.024;6.596;2023-12-07T04:48:16;22.35;;;14.15;;
52962;SDS011;38827;53.024;6.596;2023-12-07T04:50:51;20.60;;;14.00;;
52962;SDS011;38827;53.024;6.596;2023-12-07T04:56:28;20.67;;;14.03;;
52962;SDS011;38827;53.024;6.596;2023-12-07T04:59:03;22.33;;;15.00;;
52962;SDS011;38827;53.024;6.596;2023-12-07T05:01:46;23.08;;;14.68;;
52962;SDS011;38827;53.024;6.596;2023-12-07T05:04:12;21.00;;;14.93;;
52962;SDS011;38827;53.024;6.596;2023-12-07T05:06:38;22.70;;;15.10;;
52962;SDS011;38827;53.024;6.596;2023-12-07T05:09:19;21.55;;;14.75;;
52962;SDS011;38827;53.024;6.596;2023-12-07T05:11:48;23.85;;;14.85;;
52962;SDS011;38827;53.024;6.596;2023-12-07T05:17:39;23.13;;;14.80;;
52962;SDS011;38827;53.024;6.596;2023-12-07T05:20:19;25.83;;;15.52;;
52962;SDS011;38827;53.024;6.596;2023-12-07T05:23:08;22.58;;;15.52;;
52962;SDS011;38827;53.024;6.596;2023-12-07T05:25:46;26.58;;;15.75;;
52962;SDS011;38827;53.024;6.596;2023-12-07T05:28:30;24.85;;;14.98;;
52962;SDS011;38827;53.024;6.596;2023-12-07T05:30:56;26.60;;;15.60;;
52962;SDS011;38827;53.024;6.596;2023-12-07T05:33:40;23.30;;;15.33;;
52962;SDS011;38827;53.024;6.596;2023-12-07T05:36:06;31.13;;;16.30;;
52962;SDS011;38827;53.024;6.596;2023-12-07T05:41:26;23.75;;;15.65;;
52962;SDS011;38827;53.024;6.596;2023-12-07T05:44:37;23.95;;;15.10;;
52962;SDS011;38827;53.024;6.596;2023-12-07T05:47:03;25.85;;;15.20;;
52962;SDS011;38827;53.024;6.596;2023-12-07T05:49:29;24.80;;;15.18;;
52962;SDS011;38827;53.024;6.596;2023-12-07T05:52:00;24.85;;;15.60;;
52962;SDS011;38827;53.024;6.596;2023-12-07T05:54:27;26.00;;;15.75;;
52962;SDS011;38827;53.024;6.596;2023-12-07T05:57:18;24.23;;;15.00;;
52962;SDS011;38827;53.024;6.596;2023-12-07T05:59:59;23.52;;;14.88;;
52962;SDS011;38827;53.024;6.596;2023-12-07T06:02:38;25.23;;;15.20;;
52962;SDS011;38827;53.024;6.596;2023-12-07T06:05:08;27.08;;;16.02;;
52962;SDS011;38827;53.024;6.596;2023-12-07T06:07:34;29.95;;;17.23;;
52962;SDS011;38827;53.024;6.596;2023-12-07T06:10:00;29.35;;;16.10;;
52962;SDS011;38827;53.024;6.596;2023-12-07T06:12:26;30.33;;;16.55;;
52962;SDS011;38827;53.024;6.596;2023-12-07T06:15:01;29.25;;;17.63;;
52962;SDS011;38827;53.024;6.596;2023-12-07T06:17:27;29.13;;;17.52;;
52962;SDS011;38827;53.024;6.596;2023-12-07T06:19:59;33.33;;;18.33;;
52962;SDS011;38827;53.024;6.596;2023-12-07T06:22:26;29.48;;;17.50;;
52962;SDS011;38827;53.024;6.596;2023-12-07T06:24:53;30.50;;;17.35;;
52962;SDS011;38827;53.024;6.596;2023-12-07T06:27:19;30.60;;;18.27;;
52962;SDS011;38827;53.024;6.596;2023-12-07T06:30:06;31.50;;;18.52;;
52962;SDS011;38827;53.024;6.596;2023-12-07T06:32:35;33.42;;;18.10;;
52962;SDS011;38827;53.024;6.596;2023-12-07T06:35:02;34.55;;;18.15;;
52962;SDS011;38827;53.024;6.596;2023-12-07T06:37:46;32.47;;;18.90;;
52962;SDS011;38827;53.024;6.596;2023-12-07T06:40:12;31.05;;;18.30;;
52962;SDS011;38827;53.024;6.596;2023-12-07T06:42:51;31.30;;;18.23;;
52962;SDS011;38827;53.024;6.596;2023-12-07T06:45:17;28.85;;;18.25;;
52962;SDS011;38827;53.024;6.596;2023-12-07T06:47:43;33.17;;;19.30;;
52962;SDS011;38827;53.024;6.596;2023-12-07T06:50:09;36.67;;;19.65;;
52962;SDS011;38827;53.024;6.596;2023-12-07T06:52:36;32.57;;;19.53;;
52962;SDS011;38827;53.024;6.596;2023-12-07T06:55:03;34.63;;;20.27;;
52962;SDS011;38827;53.024;6.596;2023-12-07T06:57:30;31.38;;;19.33;;
52962;SDS011;38827;53.024;6.596;2023-12-07T06:59:56;33.23;;;20.93;;
52962;SDS011;38827;53.024;6.596;2023-12-07T07:02:22;33.45;;;20.08;;
52962;SDS011;38827;53.024;6.596;2023-12-07T07:04:48;32.25;;;19.70;;
52962;SDS011;38827;53.024;6.596;2023-12-07T07:07:17;32.00;;;20.13;;
52962;SDS011;38827;53.024;6.596;2023-12-07T07:09:43;32.72;;;19.98;;
52962;SDS011;38827;53.024;6.596;2023-12-07T07:14:36;35.65;;;21.30;;
52962;SDS011;38827;53.024;6.596;2023-12-07T07:17:02;35.72;;;20.63;;
52962;SDS011;38827;53.024;6.596;2023-12-07T07:19:29;41.38;;;25.83;;
52962;SDS011;38827;53.024;6.596;2023-12-07T07:21:55;48.65;;;29.08;;
52962;SDS011;38827;53.024;6.596;2023-12-07T07:24:21;41.58;;;24.73;;
52962;SDS011;38827;53.024;6.596;2023-12-07T07:26:47;37.60;;;22.20;;
52962;SDS011;38827;53.024;6.596;2023-12-07T07:29:13;39.65;;;22.45;;
52962;SDS011;38827;53.024;6.596;2023-12-07T07:31:39;40.85;;;22.58;;
52962;SDS011;38827;53.024;6.596;2023-12-07T07:34:05;37.85;;;22.60;;
52962;SDS011;38827;53.024;6.596;2023-12-07T07:36:33;42.67;;;24.58;;
52962;SDS011;38827;53.024;6.596;2023-12-07T07:38:59;45.83;;;26.10;;
52962;SDS011;38827;53.024;6.596;2023-12-07T07:41:25;28.83;;;17.50;;
52962;SDS011;38827;53.024;6.596;2023-12-07T07:43:51;40.10;;;23.65;;
52962;SDS011;38827;53.024;6.596;2023-12-07T07:46:17;39.60;;;23.75;;
52962;SDS011;38827;53.024;6.596;2023-12-07T07:48:44;41.90;;;24.27;;
52962;SDS011;38827;53.024;6.596;2023-12-07T07:51:10;44.08;;;24.98;;
52962;SDS011;38827;53.024;6.596;2023-12-07T07:53:36;40.90;;;24.13;;
52962;SDS011;38827;53.024;6.596;2023-12-07T07:56:02;43.10;;;24.67;;
52962;SDS011;38827;53.024;6.596;2023-12-07T07:58:29;39.88;;;23.08;;
52962;SDS011;38827;53.024;6.596;2023-12-07T08:00:55;41.05;;;24.15;;
52962;SDS011;38827;53.024;6.596;2023-12-07T08:03:21;39.28;;;24.25;;
52962;SDS011;38827;53.024;6.596;2023-12-07T08:05:47;39.10;;;23.88;;
52962;SDS011;38827;53.024;6.596;2023-12-07T08:10:48;36.38;;;22.95;;
52962;SDS011;38827;53.024;6.596;2023-12-07T08:13:14;38.53;;;23.73;;
52962;SDS011;38827;53.024;6.596;2023-12-07T08:15:39;39.60;;;22.98;;
52962;SDS011;38827;53.024;6.596;2023-12-07T08:18:05;38.05;;;22.95;;
52962;SDS011;38827;53.024;6.596;2023-12-07T08:20:31;38.45;;;23.92;;
52962;SDS011;38827;53.024;6.596;2023-12-07T08:23:00;35.47;;;22.20;;
52962;SDS011;38827;53.024;6.596;2023-12-07T08:25:26;34.88;;;22.10;;
52962;SDS011;38827;53.024;6.596;2023-12-07T08:27:51;32.90;;;21.75;;
52962;SDS011;38827;53.024;6.596;2023-12-07T08:30:20;38.78;;;28.08;;
52962;SDS011;38827;53.024;6.596;2023-12-07T08:33:01;38.25;;;26.08;;
52962;SDS011;38827;53.024;6.596;2023-12-07T08:35:42;29.30;;;20.15;;
52962;SDS011;38827;53.024;6.596;2023-12-07T08:38:17;28.33;;;18.45;;
52962;SDS011;38827;53.024;6.596;2023-12-07T08:40:51;24.92;;;17.85;;
52962;SDS011;38827;53.024;6.596;2023-12-07T08:43:21;25.40;;;17.15;;
52962;SDS011;38827;53.024;6.596;2023-12-07T08:46:02;21.13;;;16.98;;
52962;SDS011;38827;53.024;6.596;2023-12-07T08:48:48;22.88;;;17.63;;
52962;SDS011;38827;53.024;6.596;2023-12-07T08:51:13;21.40;;;18.33;;
52962;SDS011;38827;53.024;6.596;2023-12-07T08:53:42;21.42;;;15.85;;
52962;SDS011;38827;53.024;6.596;2023-12-07T08:56:08;21.15;;;15.48;;
52962;SDS011;38827;53.024;6.596;2023-12-07T08:58:49;18.45;;;15.35;;
52962;SDS011;38827;53.024;6.596;2023-12-07T09:01:28;20.80;;;15.63;;
52962;SDS011;38827;53.024;6.596;2023-12-07T09:04:07;22.20;;;16.17;;
52962;SDS011;38827;53.024;6.596;2023-12-07T09:06:34;21.75;;;16.13;;
52962;SDS011;38827;53.024;6.596;2023-12-07T09:11:31;21.52;;;16.73;;
52962;SDS011;38827;53.024;6.596;2023-12-07T09:14:04;28.77;;;20.73;;
52962;SDS011;38827;53.024;6.596;2023-12-07T09:19:33;27.15;;;18.83;;
52962;SDS011;38827;53.024;6.596;2023-12-07T09:21:59;27.40;;;18.55;;
52962;SDS011;38827;53.024;6.596;2023-12-07T09:24:25;24.00;;;17.40;;
52962;SDS011;38827;53.024;6.596;2023-12-07T09:27:15;24.58;;;18.08;;
52962;SDS011;38827;53.024;6.596;2023-12-07T09:29:53;27.13;;;17.80;;
52962;SDS011;38827;53.024;6.596;2023-12-07T09:39:42;25.80;;;17.45;;
52962;SDS011;38827;53.024;6.596;2023-12-07T09:42:42;27.92;;;19.00;;
52962;SDS011;38827;53.024;6.596;2023-12-07T09:48:33;28.42;;;19.50;;
52962;SDS011;38827;53.024;6.596;2023-12-07T09:57:27;26.02;;;17.75;;
52962;SDS011;38827;53.024;6.596;2023-12-07T10:00:12;30.05;;;18.52;;
52962;SDS011;38827;53.024;6.596;2023-12-07T10:02:58;28.25;;;20.50;;
52962;SDS011;38827;53.024;6.596;2023-12-07T10:11:12;30.05;;;19.35;;
52962;SDS011;38827;53.024;6.596;2023-12-07T10:13:39;32.70;;;21.55;;
52962;SDS011;38827;53.024;6.596;2023-12-07T10:16:26;29.13;;;18.65;;
52962;SDS011;38827;53.024;6.596;2023-12-07T10:24:35;28.65;;;18.65;;
52962;SDS011;38827;53.024;6.596;2023-12-07T10:27:01;45.50;;;26.48;;
52962;SDS011;38827;53.024;6.596;2023-12-07T10:32:14;28.35;;;19.23;;
52962;SDS011;38827;53.024;6.596;2023-12-07T10:34:40;30.42;;;18.88;;
52962;SDS011;38827;53.024;6.596;2023-12-07T10:39:50;27.60;;;19.33;;
52962;SDS011;38827;53.024;6.596;2023-12-07T10:45:22;31.50;;;19.05;;
52962;SDS011;38827;53.024;6.596;2023-12-07T10:48:20;26.50;;;19.05;;
52962;SDS011;38827;53.024;6.596;2023-12-07T10:53:53;24.63;;;17.50;;
52962;SDS011;38827;53.024;6.596;2023-12-07T10:56:39;27.55;;;17.85;;
52962;SDS011;38827;53.024;6.596;2023-12-07T10:59:36;31.45;;;16.13;;
52962;SDS011;38827;53.024;6.596;2023-12-07T11:05:21;40.65;;;15.73;;
52962;SDS011;38827;53.024;6.596;2023-12-07T11:08:02;49.10;;;15.75;;
52962;SDS011;38827;53.024;6.596;2023-12-07T11:11:20;27.13;;;16.05;;
52962;SDS011;38827;53.024;6.596;2023-12-07T11:17:03;34.22;;;14.43;;
52962;SDS011;38827;53.024;6.596;2023-12-07T11:22:06;28.05;;;15.55;;
52962;SDS011;38827;53.024;6.596;2023-12-07T11:24:32;27.30;;;15.38;;
52962;SDS011;38827;53.024;6.596;2023-12-07T11:26:58;40.85;;;15.13;;
52962;SDS011;38827;53.024;6.596;2023-12-07T11:29:27;40.22;;;15.40;;
52962;SDS011;38827;53.024;6.596;2023-12-07T11:31:57;39.05;;;14.77;;
52962;SDS011;38827;53.024;6.596;2023-12-07T11:34:40;43.85;;;16.15;;
52962;SDS011;38827;53.024;6.596;2023-12-07T11:37:16;32.58;;;15.82;;
52962;SDS011;38827;53.024;6.596;2023-12-07T11:40:00;50.55;;;16.00;;
52962;SDS011;38827;53.024;6.596;2023-12-07T11:42:38;60.88;;;16.85;;
52962;SDS011;38827;53.024;6.596;2023-12-07T11:45:08;66.40;;;18.42;;
52962;SDS011;38827;53.024;6.596;2023-12-07T11:47:34;65.70;;;17.58;;
52962;SDS011;38827;53.024;6.596;2023-12-07T11:50:03;34.38;;;18.48;;
52962;SDS011;38827;53.024;6.596;2023-12-07T11:52:29;65.28;;;19.02;;
52962;SDS011;38827;53.024;6.596;2023-12-07T11:54:55;62.27;;;18.43;;
52962;SDS011;38827;53.024;6.596;2023-12-07T11:57:30;80.33;;;17.57;;
52962;SDS011;38827;53.024;6.596;2023-12-07T12:00:09;65.55;;;17.90;;
52962;SDS011;38827;53.024;6.596;2023-12-07T12:05:16;55.42;;;19.45;;
52962;SDS011;38827;53.024;6.596;2023-12-07T12:07:42;58.03;;;17.70;;
52962;SDS011;38827;53.024;6.596;2023-12-07T12:10:08;45.40;;;17.58;;
52962;SDS011;38827;53.024;6.596;2023-12-07T12:12:34;73.65;;;16.23;;
52962;SDS011;38827;53.024;6.596;2023-12-07T12:15:00;43.78;;;17.65;;
52962;SDS011;38827;53.024;6.596;2023-12-07T12:17:26;55.28;;;18.75;;
52962;SDS011;38827;53.024;6.596;2023-12-07T12:19:55;47.72;;;21.17;;
52962;SDS011;38827;53.024;6.596;2023-12-07T12:22:29;71.18;;;20.92;;
52962;SDS011;38827;53.024;6.596;2023-12-07T12:24:58;49.53;;;21.55;;
52962;SDS011;38827;53.024;6.596;2023-12-07T12:27:24;59.60;;;22.13;;
52962;SDS011;38827;53.024;6.596;2023-12-07T12:29:50;68.50;;;23.75;;
52962;SDS011;38827;53.024;6.596;2023-12-07T12:32:16;53.60;;;27.70;;
52962;SDS011;38827;53.024;6.596;2023-12-07T12:34:51;42.97;;;22.10;;
52962;SDS011;38827;53.024;6.596;2023-12-07T12:37:30;49.72;;;22.67;;
52962;SDS011;38827;53.024;6.596;2023-12-07T12:42:52;79.20;;;22.73;;
52962;SDS011;38827;53.024;6.596;2023-12-07T12:45:18;64.82;;;23.00;;
52962;SDS011;38827;53.024;6.596;2023-12-07T12:48:00;65.32;;;21.98;;
52962;SDS011;38827;53.024;6.596;2023-12-07T12:50:41;56.85;;;24.00;;
52962;SDS011;38827;53.024;6.596;2023-12-07T12:53:18;48.58;;;23.55;;
52962;SDS011;38827;53.024;6.596;2023-12-07T12:55:53;72.75;;;23.23;;
52962;SDS011;38827;53.024;6.596;2023-12-07T12:58:23;73.82;;;23.15;;
52962;SDS011;38827;53.024;6.596;2023-12-07T13:00:55;89.53;;;23.58;;
52962;SDS011;38827;53.024;6.596;2023-12-07T13:03:32;72.50;;;23.65;;
52962;SDS011;38827;53.024;6.596;2023-12-07T13:06:07;57.53;;;25.08;;
52962;SDS011;38827;53.024;6.596;2023-12-07T13:08:33;58.45;;;25.67;;
52962;SDS011;38827;53.024;6.596;2023-12-07T13:11:05;79.53;;;25.35;;
52962;SDS011;38827;53.024;6.596;2023-12-07T13:13:32;55.90;;;25.53;;
52962;SDS011;38827;53.024;6.596;2023-12-07T13:15:58;69.30;;;25.92;;
52962;SDS011;38827;53.024;6.596;2023-12-07T13:18:24;74.47;;;24.98;;
52962;SDS011;38827;53.024;6.596;2023-12-07T13:21:05;57.08;;;24.55;;
52962;SDS011;38827;53.024;6.596;2023-12-07T13:23:40;76.55;;;26.05;;
52962;SDS011;38827;53.024;6.596;2023-12-07T13:26:21;54.78;;;24.23;;
52962;SDS011;38827;53.024;6.596;2023-12-07T13:28:57;72.10;;;23.20;;
52962;SDS011;38827;53.024;6.596;2023-12-07T13:31:24;71.05;;;25.25;;
52962;SDS011;38827;53.024;6.596;2023-12-07T13:33:53;59.70;;;24.35;;
52962;SDS011;38827;53.024;6.596;2023-12-07T13:36:32;91.75;;;25.75;;
52962;SDS011;38827;53.024;6.596;2023-12-07T13:39:00;59.25;;;27.13;;
52962;SDS011;38827;53.024;6.596;2023-12-07T13:41:27;69.80;;;27.25;;
52962;SDS011;38827;53.024;6.596;2023-12-07T13:44:03;63.47;;;26.77;;
52962;SDS011;38827;53.024;6.596;2023-12-07T13:49:07;66.20;;;27.52;;
52962;SDS011;38827;53.024;6.596;2023-12-07T13:57:20;70.53;;;28.15;;
52962;SDS011;38827;53.024;6.596;2023-12-07T14:13:27;84.07;;;31.02;;
52962;SDS011;38827;53.024;6.596;2023-12-07T14:19:23;82.15;;;29.67;;
52962;SDS011;38827;53.024;6.596;2023-12-07T14:29:39;97.30;;;35.92;;
52962;SDS011;38827;53.024;6.596;2023-12-07T14:32:22;88.10;;;30.20;;
52962;SDS011;38827;53.024;6.596;2023-12-07T14:58:16;99.63;;;32.50;;
52962;SDS011;38827;53.024;6.596;2023-12-07T15:00:42;122.03;;;37.85;;
52962;SDS011;38827;53.024;6.596;2023-12-07T15:03:08;106.65;;;34.13;;
52962;SDS011;38827;53.024;6.596;2023-12-07T15:08:43;120.28;;;41.80;;
52962;SDS011;38827;53.024;6.596;2023-12-07T15:18:28;111.40;;;32.45;;
52962;SDS011;38827;53.024;6.596;2023-12-07T15:21:02;112.10;;;34.65;;
52962;SDS011;38827;53.024;6.596;2023-12-07T15:23:29;105.93;;;32.35;;
52962;SDS011;38827;53.024;6.596;2023-12-07T15:28:33;107.03;;;34.25;;
52962;SDS011;38827;53.024;6.596;2023-12-07T15:31:01;115.45;;;37.03;;
52962;SDS011;38827;53.024;6.596;2023-12-07T15:33:45;115.13;;;35.92;;
52962;SDS011;38827;53.024;6.596;2023-12-07T15:36:14;114.15;;;37.08;;
52962;SDS011;38827;53.024;6.596;2023-12-07T15:38:39;108.28;;;36.38;;
52962;SDS011;38827;53.024;6.596;2023-12-07T15:41:06;113.95;;;37.38;;
52962;SDS011;38827;53.024;6.596;2023-12-07T16:00:20;82.20;;;32.05;;
52962;SDS011;38827;53.024;6.596;2023-12-07T16:12:29;93.53;;;33.78;;
52962;SDS011;38827;53.024;6.596;2023-12-07T16:26:58;78.70;;;30.50;;
52962;SDS011;38827;53.024;6.596;2023-12-07T16:29:26;69.28;;;28.50;;
52962;SDS011;38827;53.024;6.596;2023-12-07T16:31:52;82.80;;;31.30;;
52962;SDS011;38827;53.024;6.596;2023-12-07T16:38:16;79.53;;;30.45;;
52962;SDS011;38827;53.024;6.596;2023-12-07T16:43:37;79.50;;;29.35;;
52962;SDS011;38827;53.024;6.596;2023-12-07T16:52:31;89.85;;;33.45;;
52962;SDS011;38827;53.024;6.596;2023-12-07T16:54:56;83.22;;;31.80;;
52962;SDS011;38827;53.024;6.596;2023-12-07T16:57:23;76.65;;;30.27;;
52962;SDS011;38827;53.024;6.596;2023-12-07T16:59:49;79.65;;;30.33;;
52962;SDS011;38827;53.024;6.596;2023-12-07T17:02:27;75.78;;;30.33;;
52962;SDS011;38827;53.024;6.596;2023-12-07T17:04:52;84.93;;;32.83;;
52962;SDS011;38827;53.024;6.596;2023-12-07T17:07:18;78.10;;;31.00;;
52962;SDS011;38827;53.024;6.596;2023-12-07T17:09:49;85.28;;;33.17;;
52962;SDS011;38827;53.024;6.596;2023-12-07T17:12:25;89.47;;;34.78;;
52962;SDS011;38827;53.024;6.596;2023-12-07T17:15:00;89.78;;;34.45;;
52962;SDS011;38827;53.024;6.596;2023-12-07T17:27:27;85.88;;;32.35;;
52962;SDS011;38827;53.024;6.596;2023-12-07T17:29:53;89.35;;;36.30;;
52962;SDS011;38827;53.024;6.596;2023-12-07T17:35:04;84.10;;;34.20;;
52962;SDS011;38827;53.024;6.596;2023-12-07T17:48:22;83.60;;;33.97;;
52962;SDS011;38827;53.024;6.596;2023-12-07T17:50:51;83.47;;;33.08;;
52962;SDS011;38827;53.024;6.596;2023-12-07T17:56:42;84.90;;;36.95;;
52962;SDS011;38827;53.024;6.596;2023-12-07T18:08:50;77.95;;;33.67;;
52962;SDS011;38827;53.024;6.596;2023-12-07T18:11:22;87.13;;;38.28;;
52962;SDS011;38827;53.024;6.596;2023-12-07T18:31:06;79.75;;;36.17;;
52962;SDS011;38827;53.024;6.596;2023-12-07T18:39:51;79.50;;;33.80;;
52962;SDS011;38827;53.024;6.596;2023-12-07T18:42:31;78.78;;;34.67;;
52962;SDS011;38827;53.024;6.596;2023-12-07T18:48:20;81.13;;;33.72;;
52962;SDS011;38827;53.024;6.596;2023-12-07T19:10:06;81.38;;;34.42;;
52962;SDS011;38827;53.024;6.596;2023-12-07T19:22:25;77.90;;;32.70;;
52962;SDS011;38827;53.024;6.596;2023-12-07T19:35:26;78.30;;;32.25;;
52962;SDS011;38827;53.024;6.596;2023-12-07T19:41:15;79.88;;;33.17;;
52962;SDS011;38827;53.024;6.596;2023-12-07T19:47:17;81.32;;;36.65;;
52962;SDS011;38827;53.024;6.596;2023-12-07T19:50:02;79.25;;;35.33;;
52962;SDS011;38827;53.024;6.596;2023-12-07T19:55:25;86.13;;;36.33;;
52962;SDS011;38827;53.024;6.596;2023-12-07T19:58:07;80.82;;;35.05;;
52962;SDS011;38827;53.024;6.596;2023-12-07T20:03:07;74.22;;;32.83;;
52962;SDS011;38827;53.024;6.596;2023-12-07T20:05:33;81.43;;;33.57;;
52962;SDS011;38827;53.024;6.596;2023-12-07T20:08:03;74.30;;;33.53;;
52962;SDS011;38827;53.024;6.596;2023-12-07T20:10:32;78.18;;;32.88;;
52962;SDS011;38827;53.024;6.596;2023-12-07T20:13:05;75.15;;;33.03;;
52962;SDS011;38827;53.024;6.596;2023-12-07T20:18:41;66.82;;;31.90;;
52962;SDS011;38827;53.024;6.596;2023-12-07T20:27:33;71.18;;;32.33;;
52962;SDS011;38827;53.024;6.596;2023-12-07T20:33:47;66.43;;;30.58;;
52962;SDS011;38827;53.024;6.596;2023-12-07T20:38:46;68.00;;;32.63;;